Time;durP1;ratioP1;P1;durP2;ratioP2;P2;SDS_P1;SDS_P2;PMS_P1;PMS_P2;Temp;Humidity;BMP_temperature;BMP_pressure;BME280_temperature;BME280_humidity;BME280_pressure;Samples;Min_cycle;Max_cycle;Signal;HPM_P1;HPM_P2
2021/08/11 00:02:16;;;;;;;7.88;4.30;;;;;;;17.38;78.97;100650.66;20786623;28;20099;-81
2021/08/11 00:12:18;;;;;;;7.95;4.30;;;;;;;17.36;79.03;100644.59;20783068;28;20081;-80
2021/08/11 00:22:20;;;;;;;7.15;4.30;;;;;;;17.18;79.46;100664.69;20767954;28;20385;-80
2021/08/11 00:32:22;;;;;;;7.60;4.20;;;;;;;17.03;80.14;100666.13;20765164;28;20104;-80
2021/08/11 00:42:24;;;;;;;11.10;4.72;;;;;;;17.00;80.23;100663.59;20763153;28;20046;-81
2021/08/11 00:52:26;;;;;;;8.50;4.65;;;;;;;17.00;80.19;100658.31;20789420;28;20049;-81
2021/08/11 01:02:29;;;;;;;7.63;3.72;;;;;;;17.00;79.42;100650.38;20853287;28;20053;-81
2021/08/11 01:12:33;;;;;;;7.03;3.90;;;;;;;16.95;80.01;100647.03;20891015;28;20047;-79
2021/08/11 01:22:43;;;;;;;7.97;4.50;;;;;;;16.80;79.98;100637.03;20832437;28;20056;-80
2021/08/11 01:32:56;;;;;;;8.13;3.90;;;;;;;16.60;81.04;100649.19;20845892;28;20042;-80
2021/08/11 01:43:00;;;;;;;7.90;4.35;;;;;;;16.59;80.68;100649.25;20825109;28;20050;-80
2021/08/11 01:53:06;;;;;;;7.55;3.85;;;;;;;16.69;80.67;100648.00;20838800;28;20050;-80
2021/08/11 02:03:09;;;;;;;8.88;4.22;;;;;;;16.83;80.34;100656.31;20822078;28;20049;-80
2021/08/11 02:13:11;;;;;;;7.38;4.22;;;;;;;16.95;80.01;100657.63;20826942;28;20454;-80
2021/08/11 02:23:13;;;;;;;6.57;4.00;;;;;;;17.14;79.97;100661.28;20853021;28;20084;-80
2021/08/11 02:33:23;;;;;;;7.88;4.45;;;;;;;16.93;79.95;100664.75;20853753;28;20469;-81
2021/08/11 02:43:30;;;;;;;7.93;4.45;;;;;;;16.66;81.39;100651.59;20857484;28;20115;-81
2021/08/11 02:53:34;;;;;;;6.15;4.07;;;;;;;16.47;83.06;100669.06;20820608;28;20546;-80
2021/08/11 03:03:36;;;;;;;8.33;4.90;;;;;;;16.37;82.79;100667.66;20801233;28;20104;-80
2021/08/11 03:13:42;;;;;;;9.55;4.97;;;;;;;16.26;82.78;100661.91;20772267;28;20403;-80
2021/08/11 03:23:44;;;;;;;8.98;4.70;;;;;;;16.07;83.19;100677.50;20757615;28;20096;-80
2021/08/11 03:33:45;;;;;;;8.80;4.80;;;;;;;15.77;84.33;100668.84;20757713;28;20444;-80
2021/08/11 03:43:48;;;;;;;7.13;4.65;;;;;;;15.61;84.53;100669.28;20759654;28;20427;-80
2021/08/11 03:53:50;;;;;;;8.63;5.35;;;;;;;15.70;84.04;100681.38;20775306;28;20050;-80
2021/08/11 04:03:51;;;;;;;8.10;4.47;;;;;;;15.66;84.13;100682.38;20770204;28;20050;-80
2021/08/11 04:13:53;;;;;;;8.88;5.10;;;;;;;15.62;83.73;100694.78;20753138;23;20189;-70
2021/08/11 04:23:55;;;;;;;8.85;4.93;;;;;;;15.70;83.56;100693.69;20745810;28;20076;-70
2021/08/11 04:33:57;;;;;;;9.35;4.90;;;;;;;15.85;82.74;100703.75;20744551;28;20046;-70
2021/08/11 04:43:59;;;;;;;7.35;4.95;;;;;;;15.77;82.51;100716.38;20726808;28;20104;-70
2021/08/11 04:54:02;;;;;;;7.80;5.22;;;;;;;15.91;83.18;100716.78;20743700;28;20480;-70
2021/08/11 05:04:03;;;;;;;7.72;5.03;;;;;;;16.17;82.62;100724.69;20742723;28;20096;-70
2021/08/11 05:14:05;;;;;;;8.82;4.70;;;;;;;16.40;81.77;100717.78;20742020;28;20112;-70
2021/08/11 05:24:07;;;;;;;9.40;4.93;;;;;;;16.64;81.40;100719.56;20740405;28;20050;-70
2021/08/11 05:34:09;;;;;;;9.30;4.78;;;;;;;16.94;81.06;100729.97;20740420;28;20045;-70
2021/08/11 05:44:11;;;;;;;10.48;4.90;;;;;;;16.94;81.84;100740.53;20740371;28;20103;-70
2021/08/11 05:54:13;;;;;;;11.00;4.75;;;;;;;17.12;81.96;100726.66;20739413;28;20050;-71
2021/08/11 06:04:14;;;;;;;9.95;5.00;;;;;;;17.54;80.13;100731.22;20738442;28;20050;-70
2021/08/11 06:14:16;;;;;;;9.27;5.00;;;;;;;17.82;78.16;100732.78;20738221;28;20160;-70
2021/08/11 06:24:18;;;;;;;8.32;4.90;;;;;;;18.08;77.39;100731.72;20738131;28;20145;-70
2021/08/11 06:34:22;;;;;;;11.50;6.38;;;;;;;18.32;76.62;100720.09;20744974;28;20092;-70
2021/08/11 06:44:24;;;;;;;10.80;5.97;;;;;;;18.34;76.78;100720.03;20751923;28;20100;-71
2021/08/11 06:54:27;;;;;;;14.18;7.13;;;;;;;18.64;76.77;100721.38;20751377;28;20056;-70
2021/08/11 07:04:29;;;;;;;14.10;8.90;;;;;;;18.87;76.08;100736.28;20741674;28;20042;-70
2021/08/11 07:14:31;;;;;;;13.88;8.68;;;;;;;18.90;75.88;100735.28;20706142;28;20108;-70
2021/08/11 07:24:33;;;;;;;13.82;9.30;;;;;;;19.32;75.73;100734.25;20719610;28;20046;-70
2021/08/11 07:34:35;;;;;;;13.63;8.20;;;;;;;19.63;76.01;100734.53;20749813;28;20050;-71
2021/08/11 07:44:37;;;;;;;13.23;8.05;;;;;;;20.12;72.54;100732.16;20676380;28;20493;-70
2021/08/11 07:54:38;;;;;;;13.57;7.00;;;;;;;20.54;73.39;100738.06;20668307;28;20051;-71
2021/08/11 08:04:41;;;;;;;13.68;6.72;;;;;;;21.26;72.14;100730.59;20666814;28;20058;-70
2021/08/11 08:14:43;;;;;;;12.57;6.00;;;;;;;22.06;68.01;100723.47;20707335;28;20072;-71
2021/08/11 08:24:44;;;;;;;7.82;4.50;;;;;;;22.27;65.08;100727.56;20729059;28;20038;-70
2021/08/11 08:34:46;;;;;;;9.55;5.25;;;;;;;22.66;63.35;100734.16;20746025;28;20054;-72
2021/08/11 08:44:48;;;;;;;10.50;5.63;;;;;;;22.61;62.01;100725.53;20744072;28;20042;-72
2021/08/11 08:54:50;;;;;;;10.65;4.82;;;;;;;23.49;59.32;100723.66;20723936;28;20046;-71
2021/08/11 09:04:52;;;;;;;9.70;5.13;;;;;;;23.20;59.29;100726.38;20740441;28;20054;-71
2021/08/11 09:14:54;;;;;;;9.02;4.95;;;;;;;23.38;58.90;100731.50;20740589;28;20054;-72
2021/08/11 09:25:07;;;;;;;7.95;3.88;;;;;;;23.75;55.45;100735.34;20741146;28;20049;-71
2021/08/11 09:35:09;;;;;;;7.72;4.65;;;;;;;24.00;55.77;100731.91;20722585;28;20054;-71
2021/08/11 09:45:12;;;;;;;8.48;3.75;;;;;;;23.70;55.97;100732.13;20740178;28;20069;-71
2021/08/11 09:55:16;;;;;;;8.20;3.88;;;;;;;23.41;56.81;100736.66;20740012;28;20581;-70
2021/08/11 10:05:37;;;;;;;6.27;3.60;;;;;;;24.32;55.54;100735.13;20737087;28;20133;-70
2021/08/11 10:15:40;;;;;;;10.48;5.20;;;;;;;24.79;56.50;100739.06;20689480;28;20108;-69
2021/08/11 10:25:42;;;;;;;8.70;4.90;;;;;;;25.03;54.47;100744.53;20656148;28;20527;-69
2021/08/11 10:35:45;;;;;;;10.85;4.68;;;;;;;25.35;53.15;100719.97;20655735;28;20046;-69
2021/08/11 10:45:59;;;;;;;11.33;4.40;;;;;;;25.77;52.08;100710.59;20655669;28;20467;-69
2021/08/11 10:56:00;;;;;;;8.20;3.95;;;;;;;26.15;52.06;100707.72;20654872;28;20103;-69
2021/08/11 11:06:02;;;;;;;7.32;3.75;;;;;;;25.90;50.50;100705.19;20653975;28;20050;-70
2021/08/11 11:16:07;;;;;;;11.27;4.43;;;;;;;25.99;51.31;100688.41;20706157;28;20099;-69
2021/08/11 11:26:15;;;;;;;9.50;3.53;;;;;;;25.87;50.08;100684.81;20749823;28;20053;-70
2021/08/11 11:36:21;;;;;;;5.43;2.80;;;;;;;25.79;49.26;100682.72;20748055;28;20459;-70
2021/08/11 11:46:48;;;;;;;8.45;2.97;;;;;;;26.03;47.95;100665.75;20747947;28;20108;-69
2021/08/11 11:56:50;;;;;;;9.00;3.38;;;;;;;26.89;47.43;100661.75;20746851;28;20046;-70
2021/08/11 12:06:52;;;;;;;12.20;4.47;;;;;;;26.44;48.71;100653.66;20746266;28;20046;-70
2021/08/11 12:16:53;;;;;;;6.00;3.40;;;;;;;26.57;47.23;100657.09;20686369;28;20050;-70
2021/08/11 12:26:55;;;;;;;5.80;3.55;;;;;;;27.31;45.88;100644.03;20661590;28;20046;-70
2021/08/11 12:36:57;;;;;;;8.63;3.67;;;;;;;27.03;45.88;100645.38;20661332;28;20050;-69
2021/08/11 12:47:06;;;;;;;6.82;3.50;;;;;;;28.12;45.42;100626.44;20661635;28;20050;-70
2021/08/11 12:57:07;;;;;;;6.07;2.88;;;;;;;27.22;45.64;100642.94;20660040;28;20054;-70
2021/08/11 13:07:09;;;;;;;6.13;2.95;;;;;;;26.67;45.87;100641.97;20640886;28;20042;-69
2021/08/11 13:17:13;;;;;;;6.60;2.72;;;;;;;26.64;46.69;100634.16;20702682;28;20080;-69
2021/08/11 13:27:16;;;;;;;7.95;3.15;;;;;;;27.02;45.47;100635.59;20737675;28;20053;-69
2021/08/11 13:37:18;;;;;;;8.18;3.45;;;;;;;27.36;45.98;100629.22;20737283;28;20049;-70
2021/08/11 13:47:23;;;;;;;6.80;3.17;;;;;;;27.64;43.26;100624.22;20738131;28;20554;-69
2021/08/11 13:57:24;;;;;;;6.30;3.33;;;;;;;27.50;41.43;100621.81;20680269;28;20653;-69
2021/08/11 14:07:26;;;;;;;5.28;2.95;;;;;;;27.48;41.97;100621.97;20653940;28;20405;-70
2021/08/11 14:17:28;;;;;;;6.63;3.47;;;;;;;27.36;42.84;100613.09;20719330;28;20458;-70
2021/08/11 14:27:30;;;;;;;5.93;3.53;;;;;;;27.73;43.98;100601.94;20719812;28;20046;-70
2021/08/11 14:37:31;;;;;;;8.68;3.40;;;;;;;27.18;46.09;100617.28;20736513;28;20046;-69
2021/08/11 14:47:33;;;;;;;7.28;3.30;;;;;;;27.22;46.16;100624.13;20736763;28;20129;-70
2021/08/11 14:57:35;;;;;;;7.03;3.65;;;;;;;27.70;44.27;100610.28;20745399;28;20054;-70
2021/08/11 15:07:37;;;;;;;8.52;3.47;;;;;;;27.47;44.11;100608.66;20749624;28;20038;-69
2021/08/11 15:17:39;;;;;;;6.43;3.33;;;;;;;27.32;44.84;100606.25;20684777;28;20050;-70
2021/08/11 15:27:41;;;;;;;10.77;3.45;;;;;;;27.42;44.85;100595.59;20668572;28;20050;-69
2021/08/11 15:37:43;;;;;;;4.95;2.97;;;;;;;27.52;45.04;100596.53;20665868;28;20112;-70
2021/08/11 15:47:44;;;;;;;6.13;3.10;;;;;;;27.30;43.29;100581.31;20666228;28;20054;-70
2021/08/11 15:57:47;;;;;;;5.13;2.83;;;;;;;27.17;42.89;100595.91;20663912;28;20101;-70
2021/08/11 16:07:49;;;;;;;5.80;3.10;;;;;;;27.09;42.55;100583.09;20664098;28;20058;-70
2021/08/11 16:17:51;;;;;;;8.75;3.38;;;;;;;28.00;44.51;100589.84;20722001;28;20057;-70
2021/08/11 16:27:53;;;;;;;7.55;3.40;;;;;;;27.73;43.33;100584.97;20744984;28;20397;-70
2021/08/11 16:37:55;;;;;;;6.03;2.97;;;;;;;28.04;43.34;100584.06;20743769;28;20038;-70
2021/08/11 16:47:56;;;;;;;6.20;3.50;;;;;;;28.06;43.43;100594.69;20743025;28;20046;-70
2021/08/11 16:57:58;;;;;;;6.97;3.35;;;;;;;28.41;41.12;100577.31;20741529;28;20053;-70
2021/08/11 17:08:00;;;;;;;5.60;3.10;;;;;;;27.89;41.32;100585.38;20741079;28;20046;-70
2021/08/11 17:18:02;;;;;;;5.03;2.88;;;;;;;27.33;43.34;100589.13;20745542;28;20120;-70
2021/08/11 17:28:04;;;;;;;10.10;3.55;;;;;;;26.92;47.11;100592.47;20746066;28;20120;-70
2021/08/11 17:38:06;;;;;;;7.63;3.40;;;;;;;26.58;48.96;100597.88;20738747;28;20096;-70
2021/08/11 17:48:08;;;;;;;6.07;2.95;;;;;;;26.97;45.00;100600.16;20737718;28;20046;-70
2021/08/11 17:58:11;;;;;;;6.23;3.60;;;;;;;26.85;47.84;100602.88;20738029;28;20042;-70
2021/08/11 18:08:13;;;;;;;5.03;2.90;;;;;;;26.77;45.07;100599.94;20719031;28;20038;-69
2021/08/11 18:18:15;;;;;;;5.70;2.88;;;;;;;26.36;45.89;100605.91;20667231;28;20054;-69
2021/08/11 18:28:17;;;;;;;6.25;3.38;;;;;;;25.75;49.74;100619.53;20660077;28;20464;-70
2021/08/11 18:38:20;;;;;;;8.20;3.50;;;;;;;25.21;52.89;100633.38;20671113;28;20050;-71
2021/08/11 18:48:23;;;;;;;6.40;3.40;;;;;;;24.73;55.01;100641.28;20654564;28;20051;-71
2021/08/11 18:58:25;;;;;;;8.40;3.78;;;;;;;24.26;58.22;100649.91;20668467;28;20046;-71
2021/08/11 19:08:28;;;;;;;6.28;3.30;;;;;;;23.73;59.92;100663.28;20669098;28;20046;-71
2021/08/11 19:18:32;;;;;;;7.32;3.38;;;;;;;23.51;61.32;100670.97;20740318;28;20096;-70
2021/08/11 19:28:34;;;;;;;7.75;3.78;;;;;;;23.08;62.54;100676.38;20748617;28;20116;-71
2021/08/11 19:38:36;;;;;;;10.40;3.75;;;;;;;22.70;62.63;100686.75;20748012;28;20053;-71
2021/08/11 19:48:38;;;;;;;5.97;3.15;;;;;;;22.38;63.58;100697.59;20748304;28;20046;-70
2021/08/11 19:58:39;;;;;;;7.32;3.70;;;;;;;22.11;64.14;100700.09;20746974;28;20103;-71
2021/08/11 20:08:41;;;;;;;10.05;3.70;;;;;;;21.89;65.30;100704.91;20744280;28;20537;-70
2021/08/11 20:18:46;;;;;;;8.23;3.67;;;;;;;21.45;68.03;100713.66;20671282;28;20054;-71
2021/08/11 20:28:50;;;;;;;6.50;3.73;;;;;;;21.23;68.86;100706.81;20663467;28;20134;-70
2021/08/11 20:38:52;;;;;;;6.93;4.05;;;;;;;20.85;70.58;100719.56;20661650;28;20049;-70
2021/08/11 20:48:54;;;;;;;6.95;4.30;;;;;;;20.84;69.26;100724.94;20662168;28;20147;-70
2021/08/11 20:58:56;;;;;;;10.18;4.63;;;;;;;20.37;71.51;100725.59;20659942;28;20493;-70
2021/08/11 21:08:58;;;;;;;7.97;4.50;;;;;;;20.24;72.53;100731.53;20659354;28;20049;-70
2021/08/11 21:18:59;;;;;;;9.02;4.72;;;;;;;20.20;73.05;100729.97;20735401;28;20054;-71
2021/08/11 21:29:01;;;;;;;8.10;4.80;;;;;;;19.96;74.26;100731.19;20739484;28;20053;-71
2021/08/11 21:39:03;;;;;;;10.15;4.70;;;;;;;19.88;74.75;100734.25;20738905;28;20092;-71
2021/08/11 21:49:05;;;;;;;8.45;4.65;;;;;;;19.83;75.67;100751.31;20739586;28;20086;-71
2021/08/11 21:59:07;;;;;;;9.82;5.20;;;;;;;19.82;77.14;100754.91;20739577;28;20103;-71
2021/08/11 22:09:09;;;;;;;10.52;4.90;;;;;;;19.75;77.55;100754.38;20737083;28;20100;-71
2021/08/11 22:19:10;;;;;;;11.70;5.03;;;;;;;19.67;76.16;100745.91;20737466;28;20045;-71
2021/08/11 22:29:15;;;;;;;;;;;;;;;19.10;79.56;100743.19;20720498;28;20050;-71
2021/08/11 22:39:16;;;;;;;11.70;5.35;;;;;;;19.09;78.91;100748.59;20735286;28;19975;-71
2021/08/11 22:49:18;;;;;;;10.43;6.28;;;;;;;19.08;78.06;100750.38;20736297;28;20368;-70
2021/08/11 22:59:20;;;;;;;7.80;4.57;;;;;;;18.81;79.61;100759.56;20735903;28;20049;-71
2021/08/11 23:09:22;;;;;;;10.82;4.97;;;;;;;18.62;80.13;100757.69;20734992;28;20123;-71
2021/08/11 23:19:24;;;;;;;9.23;5.10;;;;;;;18.54;80.08;100767.78;20745296;28;20046;-71
2021/08/11 23:29:26;;;;;;;9.25;4.85;;;;;;;18.51;79.71;100762.59;20749673;28;20115;-71
2021/08/11 23:39:27;;;;;;;8.57;5.13;;;;;;;18.30;80.13;100763.47;20747894;28;20496;-71
2021/08/11 23:49:29;;;;;;;10.45;5.30;;;;;;;18.15;80.84;100749.09;20748314;28;20065;-71
2021/08/11 23:59:31;;;;;;;9.43;5.35;;;;;;;17.89;81.46;100766.06;20747097;28;20050;-71
